Time;durP1;ratioP1;P1;durP2;ratioP2;P2;SDS_P1;SDS_P2;PMS_P1;PMS_P2;Temp;Humidity;BMP_temperature;BMP_pressure;BME280_temperature;BME280_humidity;BME280_pressure;Samples;Min_cycle;Max_cycle;Signal;HPM_P1;HPM_P2
2022/06/29 00:00:16;;;;;;;;;;;;;;;23.50;54.38;99788.72;2071844;28;20264;-55
2022/06/29 00:01:16;;;;;;;;;;;;;;;23.50;54.37;99782.38;2070548;28;20397;-55
2022/06/29 00:02:17;;;;;;;;;;;;;;;23.49;54.41;99778.78;2071007;28;20746;-55
2022/06/29 00:03:17;;;;;;;;;;;;;;;23.50;54.20;99783.22;2069960;28;20319;-55
2022/06/29 00:04:18;;;;;;;;;;;;;;;23.50;54.32;99788.72;2073616;28;19908;-54
2022/06/29 00:05:21;;;;;;;;;;;;;;;23.50;54.40;99779.63;2068853;28;19917;-55
2022/06/29 00:06:21;;;;;;;;;;;;;;;23.49;54.33;99773.25;2074592;28;19916;-55
2022/06/29 00:07:21;;;;;;;;;;;;;;;23.50;54.40;99782.38;2077215;28;19917;-55
2022/06/29 00:08:22;;;;;;;;;;;;;;;23.50;54.36;99776.88;2071968;28;19924;-55
2022/06/29 00:09:22;;;;;;;;;;;;;;;23.50;54.44;99785.97;2075516;28;19908;-55
2022/06/29 00:10:23;;;;;;;;;;;;;;;23.49;54.53;99783.38;2070447;28;20283;-56
2022/06/29 00:11:23;;;;;;;;;;;;;;;23.50;54.45;99782.38;2076045;28;19924;-56
2022/06/29 00:12:24;;;;;;;;;;;;;;;23.49;54.46;99780.63;2078367;28;19908;-55
2022/06/29 00:13:24;;;;;;;;;;;;;;;23.49;54.44;99776.03;2075956;28;19931;-55
2022/06/29 00:14:24;;;;;;;;;;;;;;;23.48;54.48;99779.78;2081443;28;19931;-56
2022/06/29 00:15:24;;;;;;;;;;;;;;;23.48;54.47;99779.78;2075437;28;19968;-55
2022/06/29 00:16:25;;;;;;;;;;;;;;;23.48;54.41;99779.78;2079893;28;19913;-56
2022/06/29 00:17:25;;;;;;;;;;;;;;;23.48;54.44;99779.78;2074778;28;19917;-55
2022/06/29 00:18:25;;;;;;;;;;;;;;;23.48;54.41;99784.44;2074971;28;20582;-55
2022/06/29 00:19:26;;;;;;;;;;;;;;;23.49;54.44;99780.63;2074370;28;19917;-55
2022/06/29 00:20:26;;;;;;;;;;;;;;;23.47;54.35;99767.09;2075444;28;19917;-55
2022/06/29 00:21:26;;;;;;;;;;;;;;;23.48;54.41;99777.03;2072826;28;19917;-55
2022/06/29 00:22:27;;;;;;;;;;;;;;;23.48;54.27;99779.78;2076544;28;19917;-55
2022/06/29 00:23:28;;;;;;;;;;;;;;;23.47;54.40;99772.59;2075144;28;19913;-56
2022/06/29 00:24:29;;;;;;;;;;;;;;;23.47;54.48;99771.72;2080819;28;19955;-54
2022/06/29 00:25:29;;;;;;;;;;;;;;;23.47;54.42;99767.09;2079440;28;20188;-55
2022/06/29 00:26:30;;;;;;;;;;;;;;;23.47;54.50;99767.09;2076575;28;19917;-55
2022/06/29 00:27:31;;;;;;;;;;;;;;;23.47;54.46;99769.84;2078085;28;19920;-55
2022/06/29 00:28:31;;;;;;;;;;;;;;;23.48;54.50;99767.94;2075424;28;19928;-55
2022/06/29 00:29:31;;;;;;;;;;;;;;;23.47;54.54;99760.72;2077827;28;19962;-55
2022/06/29 00:30:32;;;;;;;;;;;;;;;23.47;54.46;99764.34;2077544;28;20006;-55
2022/06/29 00:31:33;;;;;;;;;;;;;;;23.48;54.48;99767.94;2075987;28;19979;-55
2022/06/29 00:32:33;;;;;;;;;;;;;;;23.47;54.50;99772.59;2075543;28;19923;-55
2022/06/29 00:33:33;;;;;;;;;;;;;;;23.47;54.55;99767.09;2073904;28;19921;-56
2022/06/29 00:34:34;;;;;;;;;;;;;;;23.46;54.57;99765.38;2082293;28;19970;-55
2022/06/29 00:35:35;;;;;;;;;;;;;;;23.48;54.57;99767.94;2077070;28;19923;-56
2022/06/29 00:36:36;;;;;;;;;;;;;;;23.47;54.48;99775.34;2074002;28;20146;-55
2022/06/29 00:37:37;;;;;;;;;;;;;;;23.46;54.48;99773.63;2078623;28;19916;-55
2022/06/29 00:38:37;;;;;;;;;;;;;;;23.47;54.56;99771.72;2069233;28;19921;-55
2022/06/29 00:39:38;;;;;;;;;;;;;;;23.47;54.54;99775.34;2076101;28;19927;-55
2022/06/29 00:40:39;;;;;;;;;;;;;;;23.47;54.53;99775.34;2082808;28;20528;-55
2022/06/29 00:41:43;;;;;;;;;;;;;;;23.47;54.64;99771.72;2074273;28;19921;-55
2022/06/29 00:42:44;;;;;;;;;;;;;;;23.47;54.57;99772.59;2069959;28;20003;-55
2022/06/29 00:43:44;;;;;;;;;;;;;;;23.46;54.65;99776.38;2071344;28;19917;-56
2022/06/29 00:44:44;;;;;;;;;;;;;;;23.46;54.72;99773.63;2072319;28;20213;-55
2022/06/29 00:45:45;;;;;;;;;;;;;;;23.46;54.60;99768.13;2075491;28;19921;-56
2022/06/29 00:46:53;;;;;;;;;;;;;;;23.46;54.70;99770.00;2076700;28;20611;-56
2022/06/29 00:47:53;;;;;;;;;;;;;;;23.46;54.63;99770.00;2077328;28;19917;-55
2022/06/29 00:48:54;;;;;;;;;;;;;;;23.47;54.65;99774.47;2076746;28;19917;-54
2022/06/29 00:49:54;;;;;;;;;;;;;;;23.47;54.64;99768.97;2074880;28;19960;-56
2022/06/29 00:50:55;;;;;;;;;;;;;;;23.46;54.73;99770.88;2070393;28;20503;-56
2022/06/29 00:52:22;;;;;;;;;;;;;;;23.46;54.68;99770.88;2074606;28;20234;-55
2022/06/29 00:53:27;;;;;;;;;;;;;;;23.46;54.64;99773.63;2069971;28;20458;-55
2022/06/29 00:54:31;;;;;;;;;;;;;;;23.46;54.55;99775.53;2077032;28;20266;-55
2022/06/29 00:55:33;;;;;;;;;;;;;;;23.46;54.65;99773.63;2071429;28;19979;-54
2022/06/29 00:56:34;;;;;;;;;;;;;;;23.46;54.67;99770.88;2075501;28;19913;-55
2022/06/29 00:57:37;;;;;;;;;;;;;;;23.45;54.73;99768.31;2078936;28;19959;-55
2022/06/29 00:58:38;;;;;;;;;;;;;;;23.45;54.62;99774.66;2070636;28;19917;-55
2022/06/29 00:59:49;;;;;;;;;;;;;;;23.45;54.65;99769.16;2072725;28;20209;-55
2022/06/29 01:00:49;;;;;;;;;;;;;;;23.46;54.66;99767.25;2070183;28;19917;-56
2022/06/29 01:01:50;;;;;;;;;;;;;;;23.45;54.66;99765.56;2072801;28;20257;-55
2022/06/29 01:02:50;;;;;;;;;;;;;;;23.45;54.71;99763.66;2075957;28;20743;-56
2022/06/29 01:03:50;;;;;;;;;;;;;;;23.44;54.66;99764.69;2074680;28;19913;-56
2022/06/29 01:04:51;;;;;;;;;;;;;;;23.44;54.76;99756.44;2074416;28;20237;-55
2022/06/29 01:05:52;;;;;;;;;;;;;;;23.45;54.72;99751.81;2074820;28;20360;-55
2022/06/29 01:06:53;;;;;;;;;;;;;;;23.45;54.70;99758.16;2078178;28;20663;-56
2022/06/29 01:07:53;;;;;;;;;;;;;;;23.45;54.74;99757.31;2077312;28;19974;-55
2022/06/29 01:08:53;;;;;;;;;;;;;;;23.44;54.64;99756.44;2076840;28;19923;-55
2022/06/29 01:09:53;;;;;;;;;;;;;;;23.45;54.78;99752.66;2074763;28;19917;-55
2022/06/29 01:10:54;;;;;;;;;;;;;;;23.45;54.70;99757.31;2070747;28;19921;-55
2022/06/29 01:11:54;;;;;;;;;;;;;;;23.45;54.68;99758.16;2075386;28;19923;-55
2022/06/29 01:12:54;;;;;;;;;;;;;;;23.45;54.76;99751.81;2075203;28;19959;-55
2022/06/29 01:13:55;;;;;;;;;;;;;;;23.45;54.79;99757.31;2078972;28;19923;-55
2022/06/29 01:14:55;;;;;;;;;;;;;;;23.44;54.68;99750.09;2080341;28;19973;-54
2022/06/29 01:15:56;;;;;;;;;;;;;;;23.45;54.66;99743.56;2071980;28;20016;-55
2022/06/29 01:16:56;;;;;;;;;;;;;;;23.44;54.82;99756.44;2076423;28;20188;-55
2022/06/29 01:17:56;;;;;;;;;;;;;;;23.45;54.76;99741.66;2079782;28;19921;-55
2022/06/29 01:18:56;;;;;;;;;;;;;;;23.44;54.71;99745.44;2071800;28;19917;-54
2022/06/29 01:19:57;;;;;;;;;;;;;;;23.44;54.79;99745.44;2076824;28;20051;-55
2022/06/29 01:21:02;;;;;;;;;;;;;;;23.44;54.79;99750.94;2075082;28;20307;-55
2022/06/29 01:22:07;;;;;;;;;;;;;;;23.44;54.77;99750.09;2075534;28;19917;-56
2022/06/29 01:23:07;;;;;;;;;;;;;;;23.44;54.82;99750.94;2078338;28;19917;-55
2022/06/29 01:24:08;;;;;;;;;;;;;;;23.44;54.83;99750.94;2072807;28;19916;-55
2022/06/29 01:25:08;;;;;;;;;;;;;;;23.43;54.73;99741.00;2075696;28;19967;-55
2022/06/29 01:26:11;;;;;;;;;;;;;;;23.44;54.75;99742.69;2074232;28;20216;-55
2022/06/29 01:27:13;;;;;;;;;;;;;;;23.44;54.80;99739.09;2073230;28;19960;-55
2022/06/29 01:28:13;;;;;;;;;;;;;;;23.43;54.91;99738.25;2076545;28;20235;-55
2022/06/29 01:29:15;;;;;;;;;;;;;;;23.44;54.72;99733.59;2074403;28;19952;-55
2022/06/29 01:30:15;;;;;;;;;;;;;;;23.44;54.64;99739.94;2085939;28;19927;-55
2022/06/29 01:31:20;;;;;;;;;;;;;;;23.45;54.99;99738.06;2074789;28;20836;-56
2022/06/29 01:32:21;;;;;;;;;;;;;;;23.44;54.91;99737.19;2073823;28;19986;-55
2022/06/29 01:33:21;;;;;;;;;;;;;;;23.43;54.91;99727.25;2073691;28;20216;-54
2022/06/29 01:34:22;;;;;;;;;;;;;;;23.43;54.84;99729.13;2077697;28;19929;-55
2022/06/29 01:35:23;;;;;;;;;;;;;;;23.44;54.90;99734.44;2075471;28;19932;-56
2022/06/29 01:36:23;;;;;;;;;;;;;;;23.43;54.89;99731.88;2074881;28;20346;-55
2022/06/29 01:37:23;;;;;;;;;;;;;;;23.43;54.82;99738.25;2072536;28;19917;-55
2022/06/29 01:38:23;;;;;;;;;;;;;;;23.43;54.83;99732.72;2073406;28;19917;-55
2022/06/29 01:39:24;;;;;;;;;;;;;;;23.43;54.84;99731.88;2075126;28;19921;-55
2022/06/29 01:40:24;;;;;;;;;;;;;;;23.43;54.95;99727.25;2072368;28;19923;-55
2022/06/29 01:41:24;;;;;;;;;;;;;;;23.43;54.72;99727.25;2076034;28;20378;-55
2022/06/29 01:42:25;;;;;;;;;;;;;;;23.42;54.86;99728.28;2074171;28;19916;-54
2022/06/29 01:43:25;;;;;;;;;;;;;;;23.42;54.89;99725.53;2075112;28;20388;-56
2022/06/29 01:44:25;;;;;;;;;;;;;;;23.43;54.88;99729.97;2076215;28;19916;-56
2022/06/29 01:45:26;;;;;;;;;;;;;;;23.43;54.85;99720.88;2072728;28;20035;-55
2022/06/29 01:46:26;;;;;;;;;;;;;;;23.42;54.79;99730.16;2076696;28;19956;-56
2022/06/29 01:47:26;;;;;;;;;;;;;;;23.42;54.78;99721.91;2077670;28;21490;-56
2022/06/29 01:48:27;;;;;;;;;;;;;;;23.42;54.86;99730.16;2075998;28;19917;-55
2022/06/29 01:49:28;;;;;;;;;;;;;;;23.42;54.76;99727.41;2075762;28;20004;-55
2022/06/29 01:50:28;;;;;;;;;;;;;;;23.42;54.86;99716.41;2072305;28;19925;-56
2022/06/29 01:51:28;;;;;;;;;;;;;;;23.42;54.78;99728.28;2076924;28;19921;-55
2022/06/29 01:52:28;;;;;;;;;;;;;;;23.41;54.85;99720.22;2072166;28;19917;-55
2022/06/29 01:53:29;;;;;;;;;;;;;;;23.43;54.89;99726.38;2071876;28;19927;-55
2022/06/29 01:54:29;;;;;;;;;;;;;;;23.42;54.91;99717.28;2076339;28;19928;-55
2022/06/29 01:55:29;;;;;;;;;;;;;;;23.42;54.91;99724.66;2076187;28;20023;-55
2022/06/29 01:56:30;;;;;;;;;;;;;;;23.41;54.87;99723.81;2076675;28;19913;-55
2022/06/29 01:57:30;;;;;;;;;;;;;;;23.41;54.97;99718.31;2075867;28;19912;-55
2022/06/29 01:58:30;;;;;;;;;;;;;;;23.42;54.91;99731.03;2072059;28;20238;-56
2022/06/29 01:59:31;;;;;;;;;;;;;;;23.41;54.98;99723.81;2072876;28;19932;-56
2022/06/29 02:00:31;;;;;;;;;;;;;;;23.42;54.94;99720.03;2078205;28;20417;-53
2022/06/29 02:01:32;;;;;;;;;;;;;;;23.42;54.97;99724.66;2070852;28;19925;-55
2022/06/29 02:02:32;;;;;;;;;;;;;;;23.42;54.89;99725.53;2069331;28;20260;-55
2022/06/29 02:03:32;;;;;;;;;;;;;;;23.41;54.93;99723.81;2074512;28;19920;-55
2022/06/29 02:04:32;;;;;;;;;;;;;;;23.42;54.96;99721.91;2078677;28;19912;-55
2022/06/29 02:05:33;;;;;;;;;;;;;;;23.41;55.00;99729.31;2075886;28;19944;-56
2022/06/29 02:06:34;;;;;;;;;;;;;;;23.41;54.82;99721.06;2067413;28;19924;-55
2022/06/29 02:07:34;;;;;;;;;;;;;;;23.41;54.97;99723.81;2066910;28;19913;-55
2022/06/29 02:08:35;;;;;;;;;;;;;;;23.41;54.99;99718.31;2073520;28;20652;-56
2022/06/29 02:09:35;;;;;;;;;;;;;;;23.40;54.99;99713.88;2077142;28;19934;-55
2022/06/29 02:10:35;;;;;;;;;;;;;;;23.41;55.02;99712.81;2076242;28;19920;-55
2022/06/29 02:11:36;;;;;;;;;;;;;;;23.41;55.07;99712.81;2076192;28;19917;-55
2022/06/29 02:12:36;;;;;;;;;;;;;;;23.40;54.91;99711.13;2074755;28;19917;-56
2022/06/29 02:13:37;;;;;;;;;;;;;;;23.40;54.91;99711.13;2074483;28;19917;-55
2022/06/29 02:14:37;;;;;;;;;;;;;;;23.41;54.97;99710.06;2073238;28;20683;-55
2022/06/29 02:15:37;;;;;;;;;;;;;;;23.41;54.93;99707.31;2075658;28;19924;-55
2022/06/29 02:16:38;;;;;;;;;;;;;;;23.40;55.01;99711.13;2078150;28;20209;-56
2022/06/29 02:17:38;;;;;;;;;;;;;;;23.40;54.93;99713.88;2073011;28;20285;-56
2022/06/29 02:18:39;;;;;;;;;;;;;;;23.40;54.93;99705.63;2074737;28;19920;-55
2022/06/29 02:19:39;;;;;;;;;;;;;;;23.40;54.91;99711.13;2071699;28;20398;-55
2022/06/29 02:20:39;;;;;;;;;;;;;;;23.39;54.99;99709.38;2072624;28;19913;-55
2022/06/29 02:21:39;;;;;;;;;;;;;;;23.40;55.04;99707.53;2075434;28;19920;-55
2022/06/29 02:22:40;;;;;;;;;;;;;;;23.40;54.96;99708.38;2074395;28;20279;-55
2022/06/29 02:23:40;;;;;;;;;;;;;;;23.40;54.96;99700.13;2075834;28;19971;-55
2022/06/29 02:24:41;;;;;;;;;;;;;;;23.39;54.99;99703.88;2075037;28;20308;-55
2022/06/29 02:25:41;;;;;;;;;;;;;;;23.40;55.06;99708.38;2075331;28;19917;-55
2022/06/29 02:26:41;;;;;;;;;;;;;;;23.39;55.11;99706.63;2076648;28;19931;-55
2022/06/29 02:27:44;;;;;;;;;;;;;;;23.38;54.96;99702.19;2072808;28;19916;-55
2022/06/29 02:28:44;;;;;;;;;;;;;;;23.39;54.95;99703.03;2076493;28;19982;-56
2022/06/29 02:29:45;;;;;;;;;;;;;;;23.38;54.92;99702.19;2074635;28;19917;-56
2022/06/29 02:34:46;;;;;;;;;;;;;;;23.39;55.11;99701.13;2073390;28;20340;-56
2022/06/29 02:35:46;;;;;;;;;;;;;;;23.39;55.04;99695.63;2074827;28;19917;-54
2022/06/29 02:36:47;;;;;;;;;;;;;;;23.39;54.97;99698.38;2076702;28;19923;-55
2022/06/29 02:37:47;;;;;;;;;;;;;;;23.39;55.08;99695.63;2074504;28;19917;-55
2022/06/29 02:38:48;;;;;;;;;;;;;;;23.38;54.94;99699.44;2074645;28;19916;-55
2022/06/29 02:39:48;;;;;;;;;;;;;;;23.39;55.05;99694.78;2072861;28;19921;-55
2022/06/29 02:40:49;;;;;;;;;;;;;;;23.38;55.01;99696.69;2076639;28;20053;-56
2022/06/29 02:41:49;;;;;;;;;;;;;;;23.38;55.09;99702.19;2074652;28;19925;-55
2022/06/29 02:42:50;;;;;;;;;;;;;;;23.38;55.02;99693.94;2075674;28;19917;-56
2022/06/29 02:43:50;;;;;;;;;;;;;;;23.39;55.08;99692.03;2076548;28;20568;-56
2022/06/29 02:44:51;;;;;;;;;;;;;;;23.38;55.13;99696.69;2075118;28;19920;-55
2022/06/29 02:45:52;;;;;;;;;;;;;;;23.38;55.07;99685.69;2076115;28;20256;-56
2022/06/29 02:46:52;;;;;;;;;;;;;;;23.37;55.03;99692.25;2074609;28;20771;-55
2022/06/29 02:47:53;;;;;;;;;;;;;;;23.38;54.95;99684.84;2076375;28;20290;-56
2022/06/29 02:48:53;;;;;;;;;;;;;;;23.38;55.15;99691.19;2077583;28;19909;-56
2022/06/29 02:49:53;;;;;;;;;;;;;;;23.38;55.01;99685.69;2074902;28;19929;-55
2022/06/29 02:50:53;;;;;;;;;;;;;;;23.38;55.02;99685.69;2075396;28;19976;-56
2022/06/29 02:51:54;;;;;;;;;;;;;;;23.38;55.04;99696.69;2074983;28;19917;-56
2022/06/29 02:52:54;;;;;;;;;;;;;;;23.38;55.05;99699.44;2069680;28;19966;-56
2022/06/29 02:53:54;;;;;;;;;;;;;;;23.39;55.12;99692.03;2078986;28;19912;-56
2022/06/29 02:54:54;;;;;;;;;;;;;;;23.38;55.15;99691.19;2070974;28;20235;-56
2022/06/29 02:55:55;;;;;;;;;;;;;;;23.38;55.12;99690.34;2077269;28;19967;-55
2022/06/29 02:56:55;;;;;;;;;;;;;;;23.38;55.17;99685.69;2075367;28;19920;-56
2022/06/29 02:57:55;;;;;;;;;;;;;;;23.38;55.02;99677.44;2077229;28;19916;-56
2022/06/29 02:58:56;;;;;;;;;;;;;;;23.37;55.18;99681.25;2079915;28;19980;-55
2022/06/29 02:59:56;;;;;;;;;;;;;;;23.37;55.06;99681.25;2074711;28;20485;-55
2022/06/29 03:00:56;;;;;;;;;;;;;;;23.37;55.14;99686.75;2078552;28;20263;-55
2022/06/29 03:01:57;;;;;;;;;;;;;;;23.37;55.12;99678.50;2072144;28;19995;-56
2022/06/29 03:02:57;;;;;;;;;;;;;;;23.37;55.11;99683.13;2069154;28;20373;-54
2022/06/29 03:03:58;;;;;;;;;;;;;;;23.36;55.22;99679.53;2069143;28;19959;-55
2022/06/29 03:04:59;;;;;;;;;;;;;;;23.35;55.27;99683.31;2070339;28;20015;-55
2022/06/29 03:06:00;;;;;;;;;;;;;;;23.36;55.19;99674.00;2077087;28;19909;-55
2022/06/29 03:07:01;;;;;;;;;;;;;;;23.36;55.13;99675.91;2070847;28;19917;-55
2022/06/29 03:08:01;;;;;;;;;;;;;;;23.36;55.20;99676.75;2067877;28;20069;-56
2022/06/29 03:09:01;;;;;;;;;;;;;;;23.36;55.15;99674.00;2076089;28;19924;-55
2022/06/29 03:10:02;;;;;;;;;;;;;;;23.35;55.12;99675.06;2074507;28;19920;-55
2022/06/29 03:11:03;;;;;;;;;;;;;;;23.36;54.91;99676.75;2077526;28;19917;-56
2022/06/29 03:12:03;;;;;;;;;;;;;;;23.36;55.05;99682.28;2065728;28;19948;-55
2022/06/29 03:13:04;;;;;;;;;;;;;;;23.34;55.18;99673.34;2067545;28;20269;-55
2022/06/29 03:14:04;;;;;;;;;;;;;;;23.37;55.18;99677.63;2076608;28;19960;-56
2022/06/29 03:15:05;;;;;;;;;;;;;;;23.36;55.18;99678.66;2073819;28;19921;-55
2022/06/29 03:16:05;;;;;;;;;;;;;;;23.36;55.03;99682.28;2077208;28;19913;-55
2022/06/29 03:17:06;;;;;;;;;;;;;;;23.36;55.17;99676.75;2076509;28;19917;-55
2022/06/29 03:18:06;;;;;;;;;;;;;;;23.36;55.20;99681.41;2073392;28;20190;-55
2022/06/29 03:19:07;;;;;;;;;;;;;;;23.36;55.05;99675.91;2069647;28;19929;-55
2022/06/29 03:20:07;;;;;;;;;;;;;;;23.36;55.09;99681.41;2068944;28;19932;-55
2022/06/29 03:21:07;;;;;;;;;;;;;;;23.36;55.05;99671.25;2069956;28;19917;-56
2022/06/29 03:22:08;;;;;;;;;;;;;;;23.36;55.14;99676.75;2077303;28;20427;-55
2022/06/29 03:23:08;;;;;;;;;;;;;;;23.35;55.19;99680.56;2078756;28;19924;-55
2022/06/29 03:24:08;;;;;;;;;;;;;;;23.36;55.20;99670.41;2075660;28;19975;-56
2022/06/29 03:25:08;;;;;;;;;;;;;;;23.36;55.07;99675.91;2074106;28;19909;-55
2022/06/29 03:26:09;;;;;;;;;;;;;;;23.35;55.11;99680.56;2082061;28;19916;-55
2022/06/29 03:27:09;;;;;;;;;;;;;;;23.35;55.12;99680.56;2073107;28;19917;-55
2022/06/29 03:28:09;;;;;;;;;;;;;;;23.35;55.09;99682.44;2076335;28;20381;-56
2022/06/29 03:29:09;;;;;;;;;;;;;;;23.37;55.15;99683.13;2076011;28;19921;-55
2022/06/29 03:30:10;;;;;;;;;;;;;;;23.35;55.10;99691.56;2076807;28;19921;-55
2022/06/29 03:31:11;;;;;;;;;;;;;;;23.36;55.19;99687.75;2077339;28;20300;-55
2022/06/29 03:32:11;;;;;;;;;;;;;;;23.35;55.25;99686.06;2078039;28;19960;-55
2022/06/29 03:33:11;;;;;;;;;;;;;;;23.36;55.15;99687.75;2074308;28;19917;-55
2022/06/29 03:34:12;;;;;;;;;;;;;;;23.36;55.28;99684.16;2078236;28;20247;-56
2022/06/29 03:35:12;;;;;;;;;;;;;;;23.36;55.17;99676.75;2074810;28;19964;-55
2022/06/29 03:36:13;;;;;;;;;;;;;;;23.36;55.09;99678.66;2077489;28;20265;-55
2022/06/29 03:37:13;;;;;;;;;;;;;;;23.35;55.15;99680.56;2077008;28;19921;-56
2022/06/29 03:38:14;;;;;;;;;;;;;;;23.35;55.12;99676.94;2076186;28;19916;-55
2022/06/29 03:39:14;;;;;;;;;;;;;;;23.35;55.19;99677.81;2070018;28;19974;-56
2022/06/29 03:40:15;;;;;;;;;;;;;;;23.35;55.15;99674.19;2076368;28;20447;-55
2022/06/29 03:41:15;;;;;;;;;;;;;;;23.35;55.19;99679.69;2076776;28;19920;-56
2022/06/29 03:42:16;;;;;;;;;;;;;;;23.34;55.14;99676.09;2074733;28;19949;-56
2022/06/29 03:43:16;;;;;;;;;;;;;;;23.33;55.08;99671.66;2074596;28;19916;-56
2022/06/29 03:44:16;;;;;;;;;;;;;;;23.33;55.12;99671.66;2072212;28;19944;-55
2022/06/29 03:45:17;;;;;;;;;;;;;;;23.33;55.14;99674.41;2073590;28;20201;-55
2022/06/29 03:46:17;;;;;;;;;;;;;;;23.33;55.07;99677.16;2074539;28;19930;-55
2022/06/29 03:47:17;;;;;;;;;;;;;;;23.33;55.08;99674.41;2071016;28;19917;-55
2022/06/29 03:48:17;;;;;;;;;;;;;;;23.33;55.14;99672.50;2080818;28;19950;-56
2022/06/29 03:49:18;;;;;;;;;;;;;;;23.33;55.20;99671.66;2074038;28;20274;-56
2022/06/29 03:50:18;;;;;;;;;;;;;;;23.33;55.19;99668.91;2077767;28;19925;-55
2022/06/29 03:51:18;;;;;;;;;;;;;;;23.32;55.15;99664.44;2075497;28;19925;-56
2022/06/29 03:52:19;;;;;;;;;;;;;;;23.32;55.23;99664.44;2072828;28;19917;-55
2022/06/29 03:53:19;;;;;;;;;;;;;;;23.32;55.17;99672.66;2078904;28;19916;-56
2022/06/29 03:54:20;;;;;;;;;;;;;;;23.33;55.14;99671.66;2073224;28;20849;-55
2022/06/29 03:55:20;;;;;;;;;;;;;;;23.32;55.11;99669.91;2076610;28;19917;-55
2022/06/29 03:56:21;;;;;;;;;;;;;;;23.33;55.12;99667.00;2075153;28;19920;-55
2022/06/29 03:57:21;;;;;;;;;;;;;;;23.33;55.14;99672.50;2073566;28;19940;-55
2022/06/29 03:58:22;;;;;;;;;;;;;;;23.33;55.18;99672.50;2074162;28;19997;-56
2022/06/29 03:59:22;;;;;;;;;;;;;;;23.33;55.22;99668.91;2071707;28;19921;-55
2022/06/29 04:00:23;;;;;;;;;;;;;;;23.32;55.15;99676.31;2075845;28;19964;-55
2022/06/29 04:01:23;;;;;;;;;;;;;;;23.32;55.16;99672.66;2076245;28;19971;-56
2022/06/29 04:02:25;;;;;;;;;;;;;;;23.32;55.18;99670.81;2069630;28;19924;-54
2022/06/29 04:03:25;;;;;;;;;;;;;;;23.32;55.18;99676.31;2072399;28;19936;-56
2022/06/29 04:04:25;;;;;;;;;;;;;;;23.32;55.20;99670.81;2071960;28;19909;-54
2022/06/29 04:05:25;;;;;;;;;;;;;;;23.33;55.16;99677.16;2069160;28;19917;-56
2022/06/29 04:06:26;;;;;;;;;;;;;;;23.33;55.20;99677.16;2073410;28;20537;-55
2022/06/29 04:07:26;;;;;;;;;;;;;;;23.32;55.25;99675.41;2076074;28;19952;-55
2022/06/29 04:08:26;;;;;;;;;;;;;;;23.34;55.19;99684.34;2074464;28;19916;-55
2022/06/29 04:09:27;;;;;;;;;;;;;;;23.33;55.21;99682.66;2076467;28;20299;-55
2022/06/29 04:10:27;;;;;;;;;;;;;;;23.33;55.13;99682.66;2073242;28;19920;-55
2022/06/29 04:12:46;;;;;;;;;;;;;;;23.32;55.14;99683.69;2076421;28;19909;-55
2022/06/29 04:13:47;;;;;;;;;;;;;;;23.32;55.21;99676.31;2075115;28;19916;-56
2022/06/29 04:14:47;;;;;;;;;;;;;;;23.32;55.29;99678.19;2073188;28;19909;-54
2022/06/29 04:15:47;;;;;;;;;;;;;;;23.32;55.31;99686.44;2077088;28;19930;-56
2022/06/29 04:16:48;;;;;;;;;;;;;;;23.31;55.13;99674.56;2074671;28;20200;-56
2022/06/29 04:17:48;;;;;;;;;;;;;;;23.31;55.20;99673.72;2077546;28;19912;-56
2022/06/29 04:18:48;;;;;;;;;;;;;;;23.31;55.22;99673.72;2071366;28;19984;-55
2022/06/29 04:19:51;;;;;;;;;;;;;;;23.31;55.28;99679.22;2075296;28;20492;-55
2022/06/29 04:21:06;;;;;;;;;;;;;;;23.31;55.14;99681.97;2074993;28;20145;-55
2022/06/29 04:22:06;;;;;;;;;;;;;;;23.31;55.16;99673.72;2073236;28;19908;-55
2022/06/29 04:23:07;;;;;;;;;;;;;;;23.30;55.24;99677.53;2075987;28;19952;-55
2022/06/29 04:24:07;;;;;;;;;;;;;;;23.30;55.10;99677.53;2074599;28;20062;-56
2022/06/29 04:25:08;;;;;;;;;;;;;;;23.31;55.09;99673.72;2073911;28;19960;-55
2022/06/29 04:26:08;;;;;;;;;;;;;;;23.30;55.18;99677.53;2077827;28;19917;-55
2022/06/29 04:27:08;;;;;;;;;;;;;;;23.30;55.17;99677.53;2074855;28;19912;-56
2022/06/29 04:28:09;;;;;;;;;;;;;;;23.30;55.09;99677.53;2076931;28;20538;-55
2022/06/29 04:29:09;;;;;;;;;;;;;;;23.30;55.27;99680.28;2075633;28;19967;-56
2022/06/29 04:30:10;;;;;;;;;;;;;;;23.30;55.20;99677.53;2074608;28;19912;-55
2022/06/29 04:31:10;;;;;;;;;;;;;;;23.30;55.27;99680.28;2075887;28;19938;-54
2022/06/29 04:32:11;;;;;;;;;;;;;;;23.30;55.25;99683.88;2073886;28;19921;-56
2022/06/29 04:33:11;;;;;;;;;;;;;;;23.30;55.27;99677.53;2075575;28;20335;-56
2022/06/29 04:34:12;;;;;;;;;;;;;;;23.30;55.25;99675.63;2066930;28;20016;-55
2022/06/29 04:35:13;;;;;;;;;;;;;;;23.30;55.27;99678.38;2065503;28;19959;-55
2022/06/29 04:36:13;;;;;;;;;;;;;;;23.31;55.21;99679.22;2077076;28;19909;-55
2022/06/29 04:37:13;;;;;;;;;;;;;;;23.30;55.24;99678.38;2070377;28;20374;-54
2022/06/29 04:38:14;;;;;;;;;;;;;;;23.30;55.24;99675.63;2072372;28;19913;-55
2022/06/29 04:39:14;;;;;;;;;;;;;;;23.30;55.25;99677.53;2067455;28;20279;-54
2022/06/29 04:40:15;;;;;;;;;;;;;;;23.30;55.19;99672.03;2064978;28;19925;-55
2022/06/29 04:41:15;;;;;;;;;;;;;;;23.30;55.19;99677.53;2069617;28;20016;-55
2022/06/29 04:42:16;;;;;;;;;;;;;;;23.29;55.31;99676.66;2076460;28;19920;-55
2022/06/29 04:43:16;;;;;;;;;;;;;;;23.30;55.30;99675.63;2069347;28;19943;-55
2022/06/29 04:44:16;;;;;;;;;;;;;;;23.30;55.30;99683.03;2068917;28;20020;-55
2022/06/29 04:46:36;;;;;;;;;;;;;;;23.30;55.27;99677.53;2073162;28;20401;-55
2022/06/29 04:47:36;;;;;;;;;;;;;;;23.30;55.35;99678.38;2076174;28;20512;-55
2022/06/29 04:48:36;;;;;;;;;;;;;;;23.29;55.23;99681.31;2075588;28;19932;-56
2022/06/29 04:49:36;;;;;;;;;;;;;;;23.29;55.30;99679.41;2074805;28;19970;-54
2022/06/29 04:50:37;;;;;;;;;;;;;;;23.29;55.26;99676.66;2076513;28;19923;-55
2022/06/29 04:51:37;;;;;;;;;;;;;;;23.29;55.23;99682.16;2074215;28;19917;-54
2022/06/29 04:52:37;;;;;;;;;;;;;;;23.28;55.26;99677.72;2075528;28;19917;-55
2022/06/29 04:53:38;;;;;;;;;;;;;;;23.29;55.15;99675.81;2074412;28;19959;-55
2022/06/29 04:54:39;;;;;;;;;;;;;;;23.28;55.21;99679.63;2075123;28;19928;-56
2022/06/29 04:55:39;;;;;;;;;;;;;;;23.29;55.27;99681.31;2070298;28;19917;-55
2022/06/29 04:56:39;;;;;;;;;;;;;;;23.28;55.31;99682.38;2076883;28;19913;-55
2022/06/29 04:57:40;;;;;;;;;;;;;;;23.28;55.20;99676.88;2077357;28;19917;-55
2022/06/29 04:58:40;;;;;;;;;;;;;;;23.27;55.38;99677.88;2074124;28;19939;-55
2022/06/29 04:59:41;;;;;;;;;;;;;;;23.28;55.20;99690.63;2072166;28;19983;-55
2022/06/29 05:00:41;;;;;;;;;;;;;;;23.28;55.34;99687.88;2076457;28;20314;-55
2022/06/29 05:01:43;;;;;;;;;;;;;;;23.27;55.13;99684.25;2077882;28;20601;-55
2022/06/29 05:02:43;;;;;;;;;;;;;;;23.27;55.22;99677.88;2073691;28;20397;-56
2022/06/29 05:03:44;;;;;;;;;;;;;;;23.27;55.22;99683.38;2076248;28;19983;-56
2022/06/29 05:04:44;;;;;;;;;;;;;;;23.26;55.17;99682.53;2072155;28;19920;-55
2022/06/29 05:05:47;;;;;;;;;;;;;;;23.26;55.23;99676.19;2076917;28;19916;-56
2022/06/29 05:06:47;;;;;;;;;;;;;;;23.26;55.18;99677.03;2071319;28;19913;-55
2022/06/29 05:07:48;;;;;;;;;;;;;;;23.26;55.15;99678.94;2073238;28;19967;-55
2022/06/29 05:08:48;;;;;;;;;;;;;;;23.26;55.20;99688.03;2066894;28;19917;-55
2022/06/29 05:09:48;;;;;;;;;;;;;;;23.26;55.18;99685.28;2068465;28;20291;-56
2022/06/29 05:10:49;;;;;;;;;;;;;;;23.26;55.19;99681.69;2071302;28;20208;-55
2022/06/29 05:11:49;;;;;;;;;;;;;;;23.26;55.26;99684.44;2069242;28;19924;-55
2022/06/29 05:12:49;;;;;;;;;;;;;;;23.26;55.17;99687.19;2074348;28;19917;-54
2022/06/29 05:13:50;;;;;;;;;;;;;;;23.26;55.25;99685.28;2077826;28;19928;-55
2022/06/29 05:14:50;;;;;;;;;;;;;;;23.26;55.25;99681.69;2078474;28;19919;-55
2022/06/29 05:15:51;;;;;;;;;;;;;;;23.27;55.28;99683.38;2079906;28;20233;-56
2022/06/29 05:16:51;;;;;;;;;;;;;;;23.26;55.17;99681.69;2076927;28;19916;-55
2022/06/29 05:17:51;;;;;;;;;;;;;;;23.26;55.28;99688.03;2073478;28;20198;-55
2022/06/29 05:18:52;;;;;;;;;;;;;;;23.26;55.25;99685.28;2078158;28;19978;-55
2022/06/29 05:19:52;;;;;;;;;;;;;;;23.26;55.25;99688.03;2076384;28;20629;-54
2022/06/29 05:20:52;;;;;;;;;;;;;;;23.27;55.41;99688.88;2078471;28;19952;-55
2022/06/29 05:21:53;;;;;;;;;;;;;;;23.26;55.38;99689.94;2075482;28;19936;-55
2022/06/29 05:22:53;;;;;;;;;;;;;;;23.26;55.37;99687.19;2077215;28;20373;-56